sensor_id;sensor_type;location;lat;lon;timestamp;P1;durP1;ratioP1;P2;durP2;ratioP2
25155;SDS011;21913;52.456;13.634;2022-08-19T00:02:47;5.07;;;4.05;;
25155;SDS011;21913;52.456;13.634;2022-08-19T00:07:49;4.80;;;3.72;;
25155;SDS011;21913;52.456;13.634;2022-08-19T00:12:51;4.60;;;4.03;;
25155;SDS011;21913;52.456;13.634;2022-08-19T00:17:53;4.80;;;3.90;;
25155;SDS011;21913;52.456;13.634;2022-08-19T00:22:55;4.88;;;4.32;;
25155;SDS011;21913;52.456;13.634;2022-08-19T00:27:56;5.13;;;4.00;;
25155;SDS011;21913;52.456;13.634;2022-08-19T00:32:59;4.65;;;4.00;;
25155;SDS011;21913;52.456;13.634;2022-08-19T00:38:01;4.13;;;3.72;;
25155;SDS011;21913;52.456;13.634;2022-08-19T00:43:07;4.78;;;3.80;;
25155;SDS011;21913;52.456;13.634;2022-08-19T00:48:10;4.35;;;3.95;;
25155;SDS011;21913;52.456;13.634;2022-08-19T00:53:13;5.32;;;3.95;;
25155;SDS011;21913;52.456;13.634;2022-08-19T00:58:19;4.10;;;3.67;;
25155;SDS011;21913;52.456;13.634;2022-08-19T01:03:22;6.22;;;3.90;;
25155;SDS011;21913;52.456;13.634;2022-08-19T01:08:23;4.05;;;3.63;;
25155;SDS011;21913;52.456;13.634;2022-08-19T01:13:26;4.68;;;4.00;;
25155;SDS011;21913;52.456;13.634;2022-08-19T01:18:30;5.57;;;3.90;;
25155;SDS011;21913;52.456;13.634;2022-08-19T01:23:34;4.55;;;3.80;;
25155;SDS011;21913;52.456;13.634;2022-08-19T01:28:35;4.03;;;3.53;;
25155;SDS011;21913;52.456;13.634;2022-08-19T01:33:37;5.65;;;3.95;;
25155;SDS011;21913;52.456;13.634;2022-08-19T01:38:41;5.00;;;3.83;;
25155;SDS011;21913;52.456;13.634;2022-08-19T01:43:44;6.45;;;3.65;;
25155;SDS011;21913;52.456;13.634;2022-08-19T01:48:46;10.95;;;3.60;;
25155;SDS011;21913;52.456;13.634;2022-08-19T01:53:48;4.93;;;3.70;;
25155;SDS011;21913;52.456;13.634;2022-08-19T01:58:55;4.43;;;3.50;;
25155;SDS011;21913;52.456;13.634;2022-08-19T02:04:01;4.45;;;3.35;;
25155;SDS011;21913;52.456;13.634;2022-08-19T02:09:03;3.92;;;3.20;;
25155;SDS011;21913;52.456;13.634;2022-08-19T02:14:07;4.05;;;3.60;;
25155;SDS011;21913;52.456;13.634;2022-08-19T02:19:09;5.53;;;3.47;;
25155;SDS011;21913;52.456;13.634;2022-08-19T02:24:10;5.45;;;3.88;;
25155;SDS011;21913;52.456;13.634;2022-08-19T02:29:12;4.20;;;3.50;;
25155;SDS011;21913;52.456;13.634;2022-08-19T02:34:13;3.95;;;3.50;;
25155;SDS011;21913;52.456;13.634;2022-08-19T02:39:15;3.88;;;3.47;;
25155;SDS011;21913;52.456;13.634;2022-08-19T02:44:16;4.10;;;3.30;;
25155;SDS011;21913;52.456;13.634;2022-08-19T02:49:18;5.13;;;3.60;;
25155;SDS011;21913;52.456;13.634;2022-08-19T02:54:20;4.13;;;3.60;;
25155;SDS011;21913;52.456;13.634;2022-08-19T02:59:22;3.85;;;3.28;;
25155;SDS011;21913;52.456;13.634;2022-08-19T03:04:23;5.10;;;3.30;;
25155;SDS011;21913;52.456;13.634;2022-08-19T03:09:25;4.85;;;3.47;;
25155;SDS011;21913;52.456;13.634;2022-08-19T03:14:27;3.80;;;3.35;;
25155;SDS011;21913;52.456;13.634;2022-08-19T03:19:31;4.20;;;3.30;;
25155;SDS011;21913;52.456;13.634;2022-08-19T03:24:33;4.10;;;3.38;;
25155;SDS011;21913;52.456;13.634;2022-08-19T03:29:36;4.38;;;3.38;;
25155;SDS011;21913;52.456;13.634;2022-08-19T03:34:38;6.75;;;3.45;;
25155;SDS011;21913;52.456;13.634;2022-08-19T03:39:40;4.47;;;3.58;;
25155;SDS011;21913;52.456;13.634;2022-08-19T03:44:42;5.63;;;3.58;;
25155;SDS011;21913;52.456;13.634;2022-08-19T03:49:44;4.00;;;3.33;;
25155;SDS011;21913;52.456;13.634;2022-08-19T03:54:45;3.35;;;3.05;;
25155;SDS011;21913;52.456;13.634;2022-08-19T03:59:47;5.07;;;3.30;;
25155;SDS011;21913;52.456;13.634;2022-08-19T04:04:49;3.88;;;3.10;;
25155;SDS011;21913;52.456;13.634;2022-08-19T04:09:54;4.45;;;3.22;;
25155;SDS011;21913;52.456;13.634;2022-08-19T04:14:56;4.63;;;3.60;;
25155;SDS011;21913;52.456;13.634;2022-08-19T04:19:58;3.97;;;3.00;;
25155;SDS011;21913;52.456;13.634;2022-08-19T04:25:00;3.42;;;3.13;;
25155;SDS011;21913;52.456;13.634;2022-08-19T04:30:03;3.95;;;3.22;;
25155;SDS011;21913;52.456;13.634;2022-08-19T04:35:05;3.70;;;3.30;;
25155;SDS011;21913;52.456;13.634;2022-08-19T04:40:07;3.85;;;3.25;;
25155;SDS011;21913;52.456;13.634;2022-08-19T04:45:11;3.60;;;2.80;;
25155;SDS011;21913;52.456;13.634;2022-08-19T04:50:14;4.18;;;3.20;;
25155;SDS011;21913;52.456;13.634;2022-08-19T04:55:19;4.95;;;3.17;;
25155;SDS011;21913;52.456;13.634;2022-08-19T05:00:20;4.22;;;2.97;;
25155;SDS011;21913;52.456;13.634;2022-08-19T05:05:22;3.33;;;3.00;;
25155;SDS011;21913;52.456;13.634;2022-08-19T05:10:24;3.65;;;3.05;;
25155;SDS011;21913;52.456;13.634;2022-08-19T05:15:26;4.70;;;3.17;;
25155;SDS011;21913;52.456;13.634;2022-08-19T05:20:27;3.45;;;3.05;;
25155;SDS011;21913;52.456;13.634;2022-08-19T05:25:29;4.30;;;3.13;;
25155;SDS011;21913;52.456;13.634;2022-08-19T05:30:31;4.63;;;3.35;;
25155;SDS011;21913;52.456;13.634;2022-08-19T05:35:42;4.47;;;3.10;;
25155;SDS011;21913;52.456;13.634;2022-08-19T05:40:45;3.78;;;2.90;;
25155;SDS011;21913;52.456;13.634;2022-08-19T05:45:46;3.92;;;3.00;;
25155;SDS011;21913;52.456;13.634;2022-08-19T05:50:48;3.38;;;3.00;;
25155;SDS011;21913;52.456;13.634;2022-08-19T05:55:50;4.95;;;2.97;;
25155;SDS011;21913;52.456;13.634;2022-08-19T06:00:52;4.38;;;3.05;;
25155;SDS011;21913;52.456;13.634;2022-08-19T06:05:53;3.55;;;2.85;;
25155;SDS011;21913;52.456;13.634;2022-08-19T06:10:55;4.88;;;2.92;;
25155;SDS011;21913;52.456;13.634;2022-08-19T06:15:57;3.50;;;2.90;;
25155;SDS011;21913;52.456;13.634;2022-08-19T06:20:59;3.22;;;2.83;;
25155;SDS011;21913;52.456;13.634;2022-08-19T06:26:01;3.50;;;3.00;;
25155;SDS011;21913;52.456;13.634;2022-08-19T06:31:05;4.28;;;3.08;;
25155;SDS011;21913;52.456;13.634;2022-08-19T06:36:08;3.50;;;2.88;;
25155;SDS011;21913;52.456;13.634;2022-08-19T06:41:24;3.17;;;2.88;;
25155;SDS011;21913;52.456;13.634;2022-08-19T06:46:27;5.45;;;4.25;;
25155;SDS011;21913;52.456;13.634;2022-08-19T06:51:29;8.98;;;5.50;;
25155;SDS011;21913;52.456;13.634;2022-08-19T06:56:31;8.60;;;5.70;;
25155;SDS011;21913;52.456;13.634;2022-08-19T07:01:34;7.47;;;5.32;;
25155;SDS011;21913;52.456;13.634;2022-08-19T07:06:39;9.82;;;5.03;;
25155;SDS011;21913;52.456;13.634;2022-08-19T07:11:46;7.90;;;4.47;;
25155;SDS011;21913;52.456;13.634;2022-08-19T07:16:50;7.70;;;4.53;;
25155;SDS011;21913;52.456;13.634;2022-08-19T07:21:53;5.60;;;4.03;;
25155;SDS011;21913;52.456;13.634;2022-08-19T07:26:57;8.35;;;4.40;;
25155;SDS011;21913;52.456;13.634;2022-08-19T07:32:01;8.50;;;4.05;;
25155;SDS011;21913;52.456;13.634;2022-08-19T07:37:05;6.13;;;3.80;;
25155;SDS011;21913;52.456;13.634;2022-08-19T07:42:08;6.07;;;4.03;;
25155;SDS011;21913;52.456;13.634;2022-08-19T07:47:12;5.22;;;3.63;;
25155;SDS011;21913;52.456;13.634;2022-08-19T07:52:13;5.88;;;3.47;;
25155;SDS011;21913;52.456;13.634;2022-08-19T07:57:15;5.30;;;3.70;;
25155;SDS011;21913;52.456;13.634;2022-08-19T08:02:17;5.65;;;3.50;;
25155;SDS011;21913;52.456;13.634;2022-08-19T08:07:19;6.85;;;3.30;;
25155;SDS011;21913;52.456;13.634;2022-08-19T08:12:22;5.38;;;3.03;;
25155;SDS011;21913;52.456;13.634;2022-08-19T08:17:35;4.93;;;3.30;;
25155;SDS011;21913;52.456;13.634;2022-08-19T08:22:37;4.18;;;3.28;;
25155;SDS011;21913;52.456;13.634;2022-08-19T08:27:44;4.20;;;2.92;;
25155;SDS011;21913;52.456;13.634;2022-08-19T08:32:48;4.85;;;3.20;;
25155;SDS011;21913;52.456;13.634;2022-08-19T08:37:51;8.00;;;3.20;;
25155;SDS011;21913;52.456;13.634;2022-08-19T08:48:02;4.13;;;2.67;;
25155;SDS011;21913;52.456;13.634;2022-08-19T08:53:21;4.32;;;3.00;;
25155;SDS011;21913;52.456;13.634;2022-08-19T08:58:26;3.95;;;3.08;;
25155;SDS011;21913;52.456;13.634;2022-08-19T09:03:44;3.65;;;3.03;;
25155;SDS011;21913;52.456;13.634;2022-08-19T09:08:59;3.53;;;2.80;;
25155;SDS011;21913;52.456;13.634;2022-08-19T09:14:12;4.57;;;3.22;;
25155;SDS011;21913;52.456;13.634;2022-08-19T09:25:18;4.15;;;3.05;;
25155;SDS011;21913;52.456;13.634;2022-08-19T09:30:23;3.63;;;3.00;;
25155;SDS011;21913;52.456;13.634;2022-08-19T09:35:28;4.20;;;3.10;;
25155;SDS011;21913;52.456;13.634;2022-08-19T09:40:31;5.38;;;2.90;;
25155;SDS011;21913;52.456;13.634;2022-08-19T09:45:33;3.38;;;2.75;;
25155;SDS011;21913;52.456;13.634;2022-08-19T09:50:35;3.50;;;2.85;;
25155;SDS011;21913;52.456;13.634;2022-08-19T09:55:41;3.22;;;2.60;;
25155;SDS011;21913;52.456;13.634;2022-08-19T10:00:43;3.70;;;2.70;;
25155;SDS011;21913;52.456;13.634;2022-08-19T10:05:45;2.97;;;2.67;;
25155;SDS011;21913;52.456;13.634;2022-08-19T10:10:47;4.25;;;2.80;;
25155;SDS011;21913;52.456;13.634;2022-08-19T10:15:50;3.60;;;2.85;;
25155;SDS011;21913;52.456;13.634;2022-08-19T10:21:02;3.42;;;2.72;;
25155;SDS011;21913;52.456;13.634;2022-08-19T10:26:25;3.67;;;2.70;;
25155;SDS011;21913;52.456;13.634;2022-08-19T10:31:32;3.90;;;2.90;;
25155;SDS011;21913;52.456;13.634;2022-08-19T10:36:36;4.22;;;2.70;;
25155;SDS011;21913;52.456;13.634;2022-08-19T10:41:38;3.83;;;2.90;;
25155;SDS011;21913;52.456;13.634;2022-08-19T10:46:41;3.58;;;2.70;;
25155;SDS011;21913;52.456;13.634;2022-08-19T10:51:47;3.47;;;2.72;;
25155;SDS011;21913;52.456;13.634;2022-08-19T10:56:49;3.05;;;2.60;;
25155;SDS011;21913;52.456;13.634;2022-08-19T11:01:51;3.88;;;3.00;;
25155;SDS011;21913;52.456;13.634;2022-08-19T11:06:52;4.25;;;2.80;;
25155;SDS011;21913;52.456;13.634;2022-08-19T11:11:54;4.15;;;2.75;;
25155;SDS011;21913;52.456;13.634;2022-08-19T11:16:56;4.13;;;2.65;;
25155;SDS011;21913;52.456;13.634;2022-08-19T11:21:58;2.72;;;2.42;;
25155;SDS011;21913;52.456;13.634;2022-08-19T11:27:01;2.72;;;2.42;;
25155;SDS011;21913;52.456;13.634;2022-08-19T11:32:09;2.90;;;2.60;;
25155;SDS011;21913;52.456;13.634;2022-08-19T11:37:11;2.97;;;2.60;;
25155;SDS011;21913;52.456;13.634;2022-08-19T11:42:13;3.33;;;2.80;;
25155;SDS011;21913;52.456;13.634;2022-08-19T11:47:15;3.25;;;2.50;;
25155;SDS011;21913;52.456;13.634;2022-08-19T11:52:16;3.35;;;2.80;;
25155;SDS011;21913;52.456;13.634;2022-08-19T11:57:18;9.68;;;4.50;;
25155;SDS011;21913;52.456;13.634;2022-08-19T12:02:20;5.53;;;4.05;;
25155;SDS011;21913;52.456;13.634;2022-08-19T12:07:21;6.20;;;4.30;;
25155;SDS011;21913;52.456;13.634;2022-08-19T12:12:23;7.35;;;4.28;;
25155;SDS011;21913;52.456;13.634;2022-08-19T12:17:25;6.80;;;4.00;;
25155;SDS011;21913;52.456;13.634;2022-08-19T12:22:28;6.10;;;4.15;;
25155;SDS011;21913;52.456;13.634;2022-08-19T12:27:29;5.45;;;4.00;;
25155;SDS011;21913;52.456;13.634;2022-08-19T12:32:32;6.40;;;4.10;;
25155;SDS011;21913;52.456;13.634;2022-08-19T12:37:35;4.47;;;3.75;;
25155;SDS011;21913;52.456;13.634;2022-08-19T12:42:36;4.65;;;3.95;;
25155;SDS011;21913;52.456;13.634;2022-08-19T12:47:39;5.25;;;4.18;;
25155;SDS011;21913;52.456;13.634;2022-08-19T12:52:41;7.05;;;3.97;;
25155;SDS011;21913;52.456;13.634;2022-08-19T12:57:42;5.00;;;3.88;;
25155;SDS011;21913;52.456;13.634;2022-08-19T13:02:45;4.57;;;3.80;;
25155;SDS011;21913;52.456;13.634;2022-08-19T13:07:49;5.35;;;4.03;;
25155;SDS011;21913;52.456;13.634;2022-08-19T13:12:52;4.82;;;3.80;;
25155;SDS011;21913;52.456;13.634;2022-08-19T13:17:54;4.53;;;3.83;;
25155;SDS011;21913;52.456;13.634;2022-08-19T13:22:56;4.93;;;3.67;;
25155;SDS011;21913;52.456;13.634;2022-08-19T13:27:57;3.80;;;3.40;;
25155;SDS011;21913;52.456;13.634;2022-08-19T13:33:01;5.03;;;3.60;;
25155;SDS011;21913;52.456;13.634;2022-08-19T13:38:03;8.88;;;4.90;;
25155;SDS011;21913;52.456;13.634;2022-08-19T13:43:05;58.55;;;8.07;;
25155;SDS011;21913;52.456;13.634;2022-08-19T13:48:07;44.35;;;7.40;;
25155;SDS011;21913;52.456;13.634;2022-08-19T13:53:10;33.65;;;6.63;;
25155;SDS011;21913;52.456;13.634;2022-08-19T13:58:12;44.13;;;6.40;;
25155;SDS011;21913;52.456;13.634;2022-08-19T14:03:14;28.15;;;5.85;;
25155;SDS011;21913;52.456;13.634;2022-08-19T14:08:16;29.17;;;6.00;;
25155;SDS011;21913;52.456;13.634;2022-08-19T14:13:19;22.10;;;5.85;;
25155;SDS011;21913;52.456;13.634;2022-08-19T14:18:23;23.35;;;6.10;;
25155;SDS011;21913;52.456;13.634;2022-08-19T14:23:24;30.92;;;6.15;;
25155;SDS011;21913;52.456;13.634;2022-08-19T14:28:26;20.63;;;5.85;;
25155;SDS011;21913;52.456;13.634;2022-08-19T14:33:27;15.82;;;5.63;;
25155;SDS011;21913;52.456;13.634;2022-08-19T14:38:29;19.90;;;5.97;;
25155;SDS011;21913;52.456;13.634;2022-08-19T14:43:31;25.35;;;5.93;;
25155;SDS011;21913;52.456;13.634;2022-08-19T14:48:32;17.70;;;4.90;;
25155;SDS011;21913;52.456;13.634;2022-08-19T14:53:34;15.13;;;5.80;;
25155;SDS011;21913;52.456;13.634;2022-08-19T14:58:36;16.20;;;5.68;;
25155;SDS011;21913;52.456;13.634;2022-08-19T15:03:39;14.73;;;5.22;;
25155;SDS011;21913;52.456;13.634;2022-08-19T15:08:41;19.45;;;5.50;;
25155;SDS011;21913;52.456;13.634;2022-08-19T15:13:43;16.60;;;5.20;;
25155;SDS011;21913;52.456;13.634;2022-08-19T15:18:46;11.48;;;4.68;;
25155;SDS011;21913;52.456;13.634;2022-08-19T15:23:51;15.77;;;5.00;;
25155;SDS011;21913;52.456;13.634;2022-08-19T15:28:53;12.35;;;4.90;;
25155;SDS011;21913;52.456;13.634;2022-08-19T15:33:56;16.42;;;4.93;;
25155;SDS011;21913;52.456;13.634;2022-08-19T15:38:58;9.88;;;4.45;;
25155;SDS011;21913;52.456;13.634;2022-08-19T15:44:01;13.70;;;4.80;;
25155;SDS011;21913;52.456;13.634;2022-08-19T15:49:05;11.48;;;4.80;;
25155;SDS011;21913;52.456;13.634;2022-08-19T15:54:09;9.70;;;4.50;;
25155;SDS011;21913;52.456;13.634;2022-08-19T15:59:13;11.73;;;5.25;;
25155;SDS011;21913;52.456;13.634;2022-08-19T16:04:14;14.57;;;5.00;;
25155;SDS011;21913;52.456;13.634;2022-08-19T16:09:17;12.02;;;4.68;;
25155;SDS011;21913;52.456;13.634;2022-08-19T16:14:22;11.57;;;4.63;;
25155;SDS011;21913;52.456;13.634;2022-08-19T16:19:25;8.15;;;4.50;;
25155;SDS011;21913;52.456;13.634;2022-08-19T16:24:28;10.35;;;4.50;;
25155;SDS011;21913;52.456;13.634;2022-08-19T16:29:29;10.30;;;4.70;;
25155;SDS011;21913;52.456;13.634;2022-08-19T16:34:31;8.98;;;4.28;;
25155;SDS011;21913;52.456;13.634;2022-08-19T16:39:33;11.27;;;4.57;;
25155;SDS011;21913;52.456;13.634;2022-08-19T16:44:35;9.48;;;4.43;;
25155;SDS011;21913;52.456;13.634;2022-08-19T16:49:40;16.80;;;4.55;;
25155;SDS011;21913;52.456;13.634;2022-08-19T16:54:42;9.43;;;4.80;;
25155;SDS011;21913;52.456;13.634;2022-08-19T16:59:44;10.27;;;4.82;;
25155;SDS011;21913;52.456;13.634;2022-08-19T17:04:45;10.13;;;4.57;;
25155;SDS011;21913;52.456;13.634;2022-08-19T17:09:47;7.65;;;4.57;;
25155;SDS011;21913;52.456;13.634;2022-08-19T17:14:49;8.57;;;4.25;;
25155;SDS011;21913;52.456;13.634;2022-08-19T17:19:51;8.15;;;4.45;;
25155;SDS011;21913;52.456;13.634;2022-08-19T17:24:52;10.50;;;4.50;;
25155;SDS011;21913;52.456;13.634;2022-08-19T17:29:54;8.13;;;4.30;;
25155;SDS011;21913;52.456;13.634;2022-08-19T17:34:55;8.45;;;4.63;;
25155;SDS011;21913;52.456;13.634;2022-08-19T17:39:57;9.13;;;4.30;;
25155;SDS011;21913;52.456;13.634;2022-08-19T17:44:59;7.57;;;4.28;;
25155;SDS011;21913;52.456;13.634;2022-08-19T17:50:06;7.47;;;4.70;;
25155;SDS011;21913;52.456;13.634;2022-08-19T17:55:10;7.38;;;4.32;;
25155;SDS011;21913;52.456;13.634;2022-08-19T18:00:14;6.90;;;4.30;;
25155;SDS011;21913;52.456;13.634;2022-08-19T18:05:17;8.30;;;4.47;;
25155;SDS011;21913;52.456;13.634;2022-08-19T18:10:20;5.40;;;4.00;;
25155;SDS011;21913;52.456;13.634;2022-08-19T18:15:23;7.22;;;4.15;;
25155;SDS011;21913;52.456;13.634;2022-08-19T18:20:24;5.85;;;3.70;;
25155;SDS011;21913;52.456;13.634;2022-08-19T18:25:26;7.57;;;3.90;;
25155;SDS011;21913;52.456;13.634;2022-08-19T18:30:28;7.32;;;4.05;;
25155;SDS011;21913;52.456;13.634;2022-08-19T18:35:31;6.85;;;3.90;;
25155;SDS011;21913;52.456;13.634;2022-08-19T18:40:32;5.82;;;4.10;;
25155;SDS011;21913;52.456;13.634;2022-08-19T18:45:34;6.60;;;4.22;;
25155;SDS011;21913;52.456;13.634;2022-08-19T18:50:36;8.68;;;4.10;;
25155;SDS011;21913;52.456;13.634;2022-08-19T18:55:37;7.13;;;3.90;;
25155;SDS011;21913;52.456;13.634;2022-08-19T19:00:39;7.85;;;3.97;;
25155;SDS011;21913;52.456;13.634;2022-08-19T19:05:41;6.95;;;4.00;;
25155;SDS011;21913;52.456;13.634;2022-08-19T19:10:43;6.32;;;3.90;;
25155;SDS011;21913;52.456;13.634;2022-08-19T19:15:44;7.13;;;3.92;;
25155;SDS011;21913;52.456;13.634;2022-08-19T19:20:46;5.30;;;3.97;;
25155;SDS011;21913;52.456;13.634;2022-08-19T19:25:48;5.00;;;3.53;;
25155;SDS011;21913;52.456;13.634;2022-08-19T19:30:52;5.68;;;3.67;;
25155;SDS011;21913;52.456;13.634;2022-08-19T19:35:54;5.28;;;4.03;;
25155;SDS011;21913;52.456;13.634;2022-08-19T19:40:55;9.40;;;3.88;;
25155;SDS011;21913;52.456;13.634;2022-08-19T19:45:58;5.55;;;3.95;;
25155;SDS011;21913;52.456;13.634;2022-08-19T19:51:00;5.47;;;3.80;;
25155;SDS011;21913;52.456;13.634;2022-08-19T19:56:04;5.93;;;4.00;;
25155;SDS011;21913;52.456;13.634;2022-08-19T20:01:06;4.22;;;3.53;;
25155;SDS011;21913;52.456;13.634;2022-08-19T20:06:10;7.15;;;3.75;;
25155;SDS011;21913;52.456;13.634;2022-08-19T20:11:24;7.65;;;3.80;;
25155;SDS011;21913;52.456;13.634;2022-08-19T20:16:31;4.38;;;3.75;;
25155;SDS011;21913;52.456;13.634;2022-08-19T20:21:33;5.32;;;3.90;;
25155;SDS011;21913;52.456;13.634;2022-08-19T20:26:35;5.82;;;3.80;;
25155;SDS011;21913;52.456;13.634;2022-08-19T20:31:37;4.93;;;3.65;;
25155;SDS011;21913;52.456;13.634;2022-08-19T20:36:39;5.43;;;3.63;;
25155;SDS011;21913;52.456;13.634;2022-08-19T20:41:41;4.85;;;3.83;;
25155;SDS011;21913;52.456;13.634;2022-08-19T20:46:43;5.60;;;3.85;;
25155;SDS011;21913;52.456;13.634;2022-08-19T20:51:44;4.93;;;3.80;;
25155;SDS011;21913;52.456;13.634;2022-08-19T20:56:46;3.92;;;3.53;;
25155;SDS011;21913;52.456;13.634;2022-08-19T21:01:48;4.75;;;3.70;;
25155;SDS011;21913;52.456;13.634;2022-08-19T21:06:50;4.68;;;3.70;;
25155;SDS011;21913;52.456;13.634;2022-08-19T21:11:52;4.10;;;3.33;;
25155;SDS011;21913;52.456;13.634;2022-08-19T21:16:54;5.85;;;3.65;;
25155;SDS011;21913;52.456;13.634;2022-08-19T21:21:55;4.45;;;3.50;;
25155;SDS011;21913;52.456;13.634;2022-08-19T21:26:57;5.45;;;3.50;;
25155;SDS011;21913;52.456;13.634;2022-08-19T21:31:59;5.32;;;3.60;;
25155;SDS011;21913;52.456;13.634;2022-08-19T21:37:01;4.25;;;3.55;;
25155;SDS011;21913;52.456;13.634;2022-08-19T21:42:02;7.18;;;4.15;;
25155;SDS011;21913;52.456;13.634;2022-08-19T21:47:04;4.97;;;3.67;;
25155;SDS011;21913;52.456;13.634;2022-08-19T21:52:06;4.28;;;3.67;;
25155;SDS011;21913;52.456;13.634;2022-08-19T21:57:08;4.53;;;3.60;;
25155;SDS011;21913;52.456;13.634;2022-08-19T22:02:13;4.32;;;3.60;;
25155;SDS011;21913;52.456;13.634;2022-08-19T22:07:20;5.97;;;3.58;;
25155;SDS011;21913;52.456;13.634;2022-08-19T22:12:24;5.97;;;3.75;;
25155;SDS011;21913;52.456;13.634;2022-08-19T22:17:31;4.00;;;3.60;;
25155;SDS011;21913;52.456;13.634;2022-08-19T22:22:32;4.40;;;3.50;;
25155;SDS011;21913;52.456;13.634;2022-08-19T22:27:34;4.82;;;3.88;;
25155;SDS011;21913;52.456;13.634;2022-08-19T22:32:36;4.28;;;3.42;;
25155;SDS011;21913;52.456;13.634;2022-08-19T22:37:38;4.25;;;3.53;;
25155;SDS011;21913;52.456;13.634;2022-08-19T22:42:40;5.15;;;3.90;;
25155;SDS011;21913;52.456;13.634;2022-08-19T22:47:42;5.68;;;3.63;;
25155;SDS011;21913;52.456;13.634;2022-08-19T22:52:43;5.00;;;3.60;;
25155;SDS011;21913;52.456;13.634;2022-08-19T22:57:45;4.88;;;3.60;;
25155;SDS011;21913;52.456;13.634;2022-08-19T23:02:47;5.07;;;3.80;;
25155;SDS011;21913;52.456;13.634;2022-08-19T23:07:49;4.40;;;3.80;;
25155;SDS011;21913;52.456;13.634;2022-08-19T23:12:51;5.53;;;3.85;;
25155;SDS011;21913;52.456;13.634;2022-08-19T23:17:54;6.00;;;3.65;;
25155;SDS011;21913;52.456;13.634;2022-08-19T23:22:57;5.10;;;3.70;;
25155;SDS011;21913;52.456;13.634;2022-08-19T23:27:59;4.72;;;3.70;;
25155;SDS011;21913;52.456;13.634;2022-08-19T23:33:03;5.22;;;3.63;;
25155;SDS011;21913;52.456;13.634;2022-08-19T23:38:10;4.45;;;3.53;;
25155;SDS011;21913;52.456;13.634;2022-08-19T23:43:11;4.10;;;3.40;;
25155;SDS011;21913;52.456;13.634;2022-08-19T23:48:15;4.15;;;3.67;;
25155;SDS011;21913;52.456;13.634;2022-08-19T23:53:17;4.15;;;3.40;;
25155;SDS011;21913;52.456;13.634;2022-08-19T23:58:19;4.07;;;3.50;;
